METAR Data
IDs: Format: Raw Decoded Include TAF

Data at: 1201 UTC 16 Jul 2019

LKPR 161130Z 32012KT 9999 SCT044 20/09 Q1015 NOSIG

TAF LKPR 161100Z 1612/1718 29008KT CAVOK
  TEMPO 1612/1619 34014G24KT 9999 SCT033
  TEMPO 1702/1706 7000 SCT023
  BECMG 1706/1708 35010KT 9999 SCT036
  TEMPO 1712/1718 BKN023